sensor_id;sensor_type;location;lat;lon;timestamp;temperature;humidity
26907;DHT22;14472;56.880;16.658;2024-01-16T00:00:15;-5.90;1.00
26907;DHT22;14472;56.880;16.658;2024-01-16T00:02:41;-6.20;1.00
26907;DHT22;14472;56.880;16.658;2024-01-16T00:05:07;-6.20;1.00
26907;DHT22;14472;56.880;16.658;2024-01-16T00:07:32;-6.30;1.00
26907;DHT22;14472;56.880;16.658;2024-01-16T00:10:00;-6.30;1.00
26907;DHT22;14472;56.880;16.658;2024-01-16T00:12:26;-6.40;1.00
26907;DHT22;14472;56.880;16.658;2024-01-16T00:14:52;-6.60;1.00
26907;DHT22;14472;56.880;16.658;2024-01-16T00:17:17;-6.50;1.00
26907;DHT22;14472;56.880;16.658;2024-01-16T00:19:43;-6.60;1.00
26907;DHT22;14472;56.880;16.658;2024-01-16T00:22:09;-6.60;1.00
26907;DHT22;14472;56.880;16.658;2024-01-16T00:24:34;-6.30;1.00
26907;DHT22;14472;56.880;16.658;2024-01-16T00:27:00;-5.80;1.00
26907;DHT22;14472;56.880;16.658;2024-01-16T00:29:26;-5.90;1.00
26907;DHT22;14472;56.880;16.658;2024-01-16T00:31:51;-6.10;1.00
26907;DHT22;14472;56.880;16.658;2024-01-16T00:34:17;-6.30;1.00
26907;DHT22;14472;56.880;16.658;2024-01-16T00:36:43;-6.60;1.00
26907;DHT22;14472;56.880;16.658;2024-01-16T00:39:08;-6.60;1.00
26907;DHT22;14472;56.880;16.658;2024-01-16T00:41:34;-6.60;1.00
26907;DHT22;14472;56.880;16.658;2024-01-16T00:44:00;-6.60;1.00
26907;DHT22;14472;56.880;16.658;2024-01-16T00:46:26;-6.80;1.00
26907;DHT22;14472;56.880;16.658;2024-01-16T00:48:51;-6.80;1.00
26907;DHT22;14472;56.880;16.658;2024-01-16T00:51:17;-6.80;1.00
26907;DHT22;14472;56.880;16.658;2024-01-16T00:53:43;-6.80;1.00
26907;DHT22;14472;56.880;16.658;2024-01-16T00:56:10;-6.80;1.00
26907;DHT22;14472;56.880;16.658;2024-01-16T00:58:36;-6.80;1.00
26907;DHT22;14472;56.880;16.658;2024-01-16T01:01:02;-6.80;1.00
26907;DHT22;14472;56.880;16.658;2024-01-16T01:03:29;-6.70;1.00
26907;DHT22;14472;56.880;16.658;2024-01-16T01:05:55;-6.30;1.00
26907;DHT22;14472;56.880;16.658;2024-01-16T01:08:21;-6.10;1.00
26907;DHT22;14472;56.880;16.658;2024-01-16T01:10:47;-6.50;1.00
26907;DHT22;14472;56.880;16.658;2024-01-16T01:13:12;-6.80;1.00
26907;DHT22;14472;56.880;16.658;2024-01-16T01:15:38;-6.90;1.00
26907;DHT22;14472;56.880;16.658;2024-01-16T01:18:04;-7.00;1.00
26907;DHT22;14472;56.880;16.658;2024-01-16T01:20:31;-6.90;1.00
26907;DHT22;14472;56.880;16.658;2024-01-16T01:22:57;-7.00;1.00
26907;DHT22;14472;56.880;16.658;2024-01-16T01:25:23;-7.00;1.00
26907;DHT22;14472;56.880;16.658;2024-01-16T01:27:51;-7.10;1.00
26907;DHT22;14472;56.880;16.658;2024-01-16T01:30:17;-7.10;1.00
26907;DHT22;14472;56.880;16.658;2024-01-16T01:32:43;-7.20;1.00
26907;DHT22;14472;56.880;16.658;2024-01-16T01:35:09;-7.30;1.00
26907;DHT22;14472;56.880;16.658;2024-01-16T01:37:37;-7.10;1.00
26907;DHT22;14472;56.880;16.658;2024-01-16T01:40:03;-7.50;1.00
26907;DHT22;14472;56.880;16.658;2024-01-16T01:42:28;-7.30;1.00
26907;DHT22;14472;56.880;16.658;2024-01-16T01:44:55;-7.40;1.00
26907;DHT22;14472;56.880;16.658;2024-01-16T01:47:20;-7.40;1.00
26907;DHT22;14472;56.880;16.658;2024-01-16T01:49:46;-6.90;1.00
26907;DHT22;14472;56.880;16.658;2024-01-16T01:52:12;-6.50;1.00
26907;DHT22;14472;56.880;16.658;2024-01-16T01:54:38;-6.90;1.00
26907;DHT22;14472;56.880;16.658;2024-01-16T01:57:05;-7.10;1.00
26907;DHT22;14472;56.880;16.658;2024-01-16T01:59:33;-7.20;1.00
26907;DHT22;14472;56.880;16.658;2024-01-16T02:01:59;-7.20;1.00
26907;DHT22;14472;56.880;16.658;2024-01-16T02:04:26;-7.20;1.00
26907;DHT22;14472;56.880;16.658;2024-01-16T02:06:53;-7.40;1.00
26907;DHT22;14472;56.880;16.658;2024-01-16T02:09:19;-7.40;1.00
26907;DHT22;14472;56.880;16.658;2024-01-16T02:11:45;-7.50;1.00
26907;DHT22;14472;56.880;16.658;2024-01-16T02:14:11;-7.30;1.00
26907;DHT22;14472;56.880;16.658;2024-01-16T02:16:39;-7.40;1.00
26907;DHT22;14472;56.880;16.658;2024-01-16T02:19:05;-7.60;1.00
26907;DHT22;14472;56.880;16.658;2024-01-16T02:21:52;-7.60;1.00
26907;DHT22;14472;56.880;16.658;2024-01-16T02:24:20;-7.60;1.00
26907;DHT22;14472;56.880;16.658;2024-01-16T02:26:46;-7.60;1.00
26907;DHT22;14472;56.880;16.658;2024-01-16T02:29:12;-7.60;1.00
26907;DHT22;14472;56.880;16.658;2024-01-16T02:31:38;-7.10;1.00
26907;DHT22;14472;56.880;16.658;2024-01-16T02:34:04;-6.60;1.00
26907;DHT22;14472;56.880;16.658;2024-01-16T02:36:30;-6.90;1.00
26907;DHT22;14472;56.880;16.658;2024-01-16T02:38:56;-7.00;1.00
26907;DHT22;14472;56.880;16.658;2024-01-16T02:41:22;-7.30;1.00
26907;DHT22;14472;56.880;16.658;2024-01-16T02:43:47;-7.50;1.00
26907;DHT22;14472;56.880;16.658;2024-01-16T02:46:14;-7.50;1.00
26907;DHT22;14472;56.880;16.658;2024-01-16T02:48:40;-7.40;1.00
26907;DHT22;14472;56.880;16.658;2024-01-16T02:51:07;-7.60;1.00
26907;DHT22;14472;56.880;16.658;2024-01-16T02:53:33;-7.70;1.00
26907;DHT22;14472;56.880;16.658;2024-01-16T02:55:59;-7.60;1.00
26907;DHT22;14472;56.880;16.658;2024-01-16T02:58:28;-7.70;1.00
26907;DHT22;14472;56.880;16.658;2024-01-16T03:00:54;-7.70;1.00
26907;DHT22;14472;56.880;16.658;2024-01-16T03:03:20;-7.80;1.00
26907;DHT22;14472;56.880;16.658;2024-01-16T03:05:49;-7.30;1.00
26907;DHT22;14472;56.880;16.658;2024-01-16T03:08:15;-6.70;1.00
26907;DHT22;14472;56.880;16.658;2024-01-16T03:10:41;-6.80;1.00
26907;DHT22;14472;56.880;16.658;2024-01-16T03:13:07;-7.20;1.00
26907;DHT22;14472;56.880;16.658;2024-01-16T03:15:33;-7.40;1.00
26907;DHT22;14472;56.880;16.658;2024-01-16T03:17:59;-7.60;1.00
26907;DHT22;14472;56.880;16.658;2024-01-16T03:20:28;-7.70;1.00
26907;DHT22;14472;56.880;16.658;2024-01-16T03:22:54;-7.70;1.00
26907;DHT22;14472;56.880;16.658;2024-01-16T03:25:20;-7.70;1.00
26907;DHT22;14472;56.880;16.658;2024-01-16T03:27:46;-7.70;1.00
26907;DHT22;14472;56.880;16.658;2024-01-16T03:30:12;-7.70;1.00
26907;DHT22;14472;56.880;16.658;2024-01-16T03:32:38;-7.80;1.00
26907;DHT22;14472;56.880;16.658;2024-01-16T03:35:05;-7.80;1.00
26907;DHT22;14472;56.880;16.658;2024-01-16T03:37:31;-7.80;1.00
26907;DHT22;14472;56.880;16.658;2024-01-16T03:39:57;-7.90;1.00
26907;DHT22;14472;56.880;16.658;2024-01-16T03:42:23;-7.70;1.00
26907;DHT22;14472;56.880;16.658;2024-01-16T03:44:49;-7.30;1.00
26907;DHT22;14472;56.880;16.658;2024-01-16T03:47:15;-6.40;1.00
26907;DHT22;14472;56.880;16.658;2024-01-16T03:49:41;-7.10;1.00
26907;DHT22;14472;56.880;16.658;2024-01-16T03:52:07;-7.50;1.00
26907;DHT22;14472;56.880;16.658;2024-01-16T03:54:32;-7.70;1.00
26907;DHT22;14472;56.880;16.658;2024-01-16T03:56:58;-7.60;1.00
26907;DHT22;14472;56.880;16.658;2024-01-16T03:59:24;-7.80;1.00
26907;DHT22;14472;56.880;16.658;2024-01-16T04:01:49;-7.80;1.00
26907;DHT22;14472;56.880;16.658;2024-01-16T04:04:16;-7.80;1.00
26907;DHT22;14472;56.880;16.658;2024-01-16T04:06:42;-7.70;1.00
26907;DHT22;14472;56.880;16.658;2024-01-16T04:09:08;-7.60;1.00
26907;DHT22;14472;56.880;16.658;2024-01-16T04:11:35;-7.70;1.00
26907;DHT22;14472;56.880;16.658;2024-01-16T04:14:01;-7.60;1.00
26907;DHT22;14472;56.880;16.658;2024-01-16T04:16:27;-7.70;1.00
26907;DHT22;14472;56.880;16.658;2024-01-16T04:18:53;-7.80;1.00
26907;DHT22;14472;56.880;16.658;2024-01-16T04:21:19;-7.20;1.00
26907;DHT22;14472;56.880;16.658;2024-01-16T04:23:44;-6.50;1.00
26907;DHT22;14472;56.880;16.658;2024-01-16T04:26:10;-7.00;1.00
26907;DHT22;14472;56.880;16.658;2024-01-16T04:28:36;-7.50;1.00
26907;DHT22;14472;56.880;16.658;2024-01-16T04:31:05;-7.50;1.00
26907;DHT22;14472;56.880;16.658;2024-01-16T04:33:31;-7.80;1.00
26907;DHT22;14472;56.880;16.658;2024-01-16T04:35:57;-8.00;1.00
26907;DHT22;14472;56.880;16.658;2024-01-16T04:38:22;-7.90;1.00
26907;DHT22;14472;56.880;16.658;2024-01-16T04:40:49;-7.80;1.00
26907;DHT22;14472;56.880;16.658;2024-01-16T04:43:15;-7.70;1.00
26907;DHT22;14472;56.880;16.658;2024-01-16T04:45:40;-7.80;1.00
26907;DHT22;14472;56.880;16.658;2024-01-16T04:48:06;-7.80;1.00
26907;DHT22;14472;56.880;16.658;2024-01-16T04:50:34;-7.90;1.00
26907;DHT22;14472;56.880;16.658;2024-01-16T04:53:00;-7.90;1.00
26907;DHT22;14472;56.880;16.658;2024-01-16T04:55:29;-7.60;1.00
26907;DHT22;14472;56.880;16.658;2024-01-16T04:57:56;-7.00;1.00
26907;DHT22;14472;56.880;16.658;2024-01-16T05:00:22;-6.30;1.00
26907;DHT22;14472;56.880;16.658;2024-01-16T05:02:48;-7.10;1.00
26907;DHT22;14472;56.880;16.658;2024-01-16T05:05:14;-7.50;1.00
26907;DHT22;14472;56.880;16.658;2024-01-16T05:07:41;-7.60;1.00
26907;DHT22;14472;56.880;16.658;2024-01-16T05:10:10;-7.70;1.00
26907;DHT22;14472;56.880;16.658;2024-01-16T05:12:40;-7.90;1.00
26907;DHT22;14472;56.880;16.658;2024-01-16T05:15:06;-7.70;1.00
26907;DHT22;14472;56.880;16.658;2024-01-16T05:17:32;-7.80;1.00
26907;DHT22;14472;56.880;16.658;2024-01-16T05:19:58;-7.80;1.00
26907;DHT22;14472;56.880;16.658;2024-01-16T05:22:24;-7.90;1.00
26907;DHT22;14472;56.880;16.658;2024-01-16T05:24:51;-8.10;1.00
26907;DHT22;14472;56.880;16.658;2024-01-16T05:27:16;-8.00;1.00
26907;DHT22;14472;56.880;16.658;2024-01-16T05:29:42;-7.80;1.00
26907;DHT22;14472;56.880;16.658;2024-01-16T05:32:08;-7.20;1.00
26907;DHT22;14472;56.880;16.658;2024-01-16T05:34:33;-6.50;1.00
26907;DHT22;14472;56.880;16.658;2024-01-16T05:36:59;-7.30;1.00
26907;DHT22;14472;56.880;16.658;2024-01-16T05:39:25;-7.70;1.00
26907;DHT22;14472;56.880;16.658;2024-01-16T05:41:50;-7.80;1.00
26907;DHT22;14472;56.880;16.658;2024-01-16T05:44:17;-7.90;1.00
26907;DHT22;14472;56.880;16.658;2024-01-16T05:46:43;-8.10;1.00
26907;DHT22;14472;56.880;16.658;2024-01-16T05:49:08;-8.20;1.00
26907;DHT22;14472;56.880;16.658;2024-01-16T05:51:34;-8.10;1.00
26907;DHT22;14472;56.880;16.658;2024-01-16T05:54:00;-8.00;1.00
26907;DHT22;14472;56.880;16.658;2024-01-16T05:56:25;-8.10;1.00
26907;DHT22;14472;56.880;16.658;2024-01-16T05:58:51;-8.10;1.00
26907;DHT22;14472;56.880;16.658;2024-01-16T06:01:17;-8.00;1.00
26907;DHT22;14472;56.880;16.658;2024-01-16T06:03:43;-8.20;1.00
26907;DHT22;14472;56.880;16.658;2024-01-16T06:06:11;-7.90;1.00
26907;DHT22;14472;56.880;16.658;2024-01-16T06:08:37;-7.40;1.00
26907;DHT22;14472;56.880;16.658;2024-01-16T06:11:03;-6.90;1.00
26907;DHT22;14472;56.880;16.658;2024-01-16T06:13:28;-7.50;1.00
26907;DHT22;14472;56.880;16.658;2024-01-16T06:15:57;-7.80;1.00
26907;DHT22;14472;56.880;16.658;2024-01-16T06:18:23;-8.10;1.00
26907;DHT22;14472;56.880;16.658;2024-01-16T06:20:48;-8.00;1.00
26907;DHT22;14472;56.880;16.658;2024-01-16T06:23:14;-8.10;1.00
26907;DHT22;14472;56.880;16.658;2024-01-16T06:25:40;-8.10;1.00
26907;DHT22;14472;56.880;16.658;2024-01-16T06:28:05;-8.20;1.00
26907;DHT22;14472;56.880;16.658;2024-01-16T06:30:32;-8.40;1.00
26907;DHT22;14472;56.880;16.658;2024-01-16T06:32:58;-8.20;1.00
26907;DHT22;14472;56.880;16.658;2024-01-16T06:35:24;-8.30;1.00
26907;DHT22;14472;56.880;16.658;2024-01-16T06:37:49;-8.30;1.00
26907;DHT22;14472;56.880;16.658;2024-01-16T06:40:15;-8.30;1.00
26907;DHT22;14472;56.880;16.658;2024-01-16T06:42:42;-8.10;1.00
26907;DHT22;14472;56.880;16.658;2024-01-16T06:45:08;-7.70;1.00
26907;DHT22;14472;56.880;16.658;2024-01-16T06:47:33;-7.00;1.00
26907;DHT22;14472;56.880;16.658;2024-01-16T06:49:59;-7.40;1.00
26907;DHT22;14472;56.880;16.658;2024-01-16T06:52:25;-7.90;1.00
26907;DHT22;14472;56.880;16.658;2024-01-16T06:54:50;-8.00;1.00
26907;DHT22;14472;56.880;16.658;2024-01-16T06:57:16;-8.10;1.00
26907;DHT22;14472;56.880;16.658;2024-01-16T06:59:42;-8.40;1.00
26907;DHT22;14472;56.880;16.658;2024-01-16T07:02:08;-8.30;1.00
26907;DHT22;14472;56.880;16.658;2024-01-16T07:04:34;-8.20;1.00
26907;DHT22;14472;56.880;16.658;2024-01-16T07:06:59;-8.30;1.00
26907;DHT22;14472;56.880;16.658;2024-01-16T07:09:26;-8.40;1.00
26907;DHT22;14472;56.880;16.658;2024-01-16T07:11:53;-8.50;1.00
26907;DHT22;14472;56.880;16.658;2024-01-16T07:14:19;-8.30;1.00
26907;DHT22;14472;56.880;16.658;2024-01-16T07:16:45;-8.40;1.00
26907;DHT22;14472;56.880;16.658;2024-01-16T07:19:11;-8.20;1.00
26907;DHT22;14472;56.880;16.658;2024-01-16T07:21:37;-7.50;1.00
26907;DHT22;14472;56.880;16.658;2024-01-16T07:24:03;-7.10;1.00
26907;DHT22;14472;56.880;16.658;2024-01-16T07:26:29;-7.50;1.00
26907;DHT22;14472;56.880;16.658;2024-01-16T07:28:55;-8.00;1.00
26907;DHT22;14472;56.880;16.658;2024-01-16T07:31:21;-8.10;1.00
26907;DHT22;14472;56.880;16.658;2024-01-16T07:33:46;-8.20;1.00
26907;DHT22;14472;56.880;16.658;2024-01-16T07:36:14;-8.30;1.00
26907;DHT22;14472;56.880;16.658;2024-01-16T07:38:40;-8.40;1.00
26907;DHT22;14472;56.880;16.658;2024-01-16T07:41:06;-8.50;1.00
26907;DHT22;14472;56.880;16.658;2024-01-16T07:43:32;-8.30;1.00
26907;DHT22;14472;56.880;16.658;2024-01-16T07:45:57;-8.50;1.00
26907;DHT22;14472;56.880;16.658;2024-01-16T07:48:23;-8.30;1.00
26907;DHT22;14472;56.880;16.658;2024-01-16T07:50:49;-8.50;1.00
26907;DHT22;14472;56.880;16.658;2024-01-16T07:53:15;-8.40;1.00
26907;DHT22;14472;56.880;16.658;2024-01-16T07:55:42;-8.30;1.00
26907;DHT22;14472;56.880;16.658;2024-01-16T07:58:10;-8.40;1.00
26907;DHT22;14472;56.880;16.658;2024-01-16T08:00:36;-8.50;1.00
26907;DHT22;14472;56.880;16.658;2024-01-16T08:03:02;-8.40;1.00
26907;DHT22;14472;56.880;16.658;2024-01-16T08:05:28;-8.00;1.00
26907;DHT22;14472;56.880;16.658;2024-01-16T08:07:57;-7.50;1.00
26907;DHT22;14472;56.880;16.658;2024-01-16T08:10:23;-6.90;1.00
26907;DHT22;14472;56.880;16.658;2024-01-16T08:12:50;-7.50;1.00
26907;DHT22;14472;56.880;16.658;2024-01-16T08:15:15;-7.80;1.00
26907;DHT22;14472;56.880;16.658;2024-01-16T08:17:41;-7.90;1.00
26907;DHT22;14472;56.880;16.658;2024-01-16T08:20:07;-7.80;1.00
26907;DHT22;14472;56.880;16.658;2024-01-16T08:22:36;-8.20;1.00
26907;DHT22;14472;56.880;16.658;2024-01-16T08:25:02;-8.30;1.00
26907;DHT22;14472;56.880;16.658;2024-01-16T08:27:30;-8.20;1.00
26907;DHT22;14472;56.880;16.658;2024-01-16T08:29:56;-8.20;1.00
26907;DHT22;14472;56.880;16.658;2024-01-16T08:32:21;-8.20;1.00
26907;DHT22;14472;56.880;16.658;2024-01-16T08:34:47;-8.40;1.00
26907;DHT22;14472;56.880;16.658;2024-01-16T08:37:13;-8.20;1.00
26907;DHT22;14472;56.880;16.658;2024-01-16T08:39:39;-8.20;1.00
26907;DHT22;14472;56.880;16.658;2024-01-16T08:42:04;-8.00;1.00
26907;DHT22;14472;56.880;16.658;2024-01-16T08:44:30;-7.60;1.00
26907;DHT22;14472;56.880;16.658;2024-01-16T08:46:56;-6.70;1.00
26907;DHT22;14472;56.880;16.658;2024-01-16T08:49:23;-7.50;1.00
26907;DHT22;14472;56.880;16.658;2024-01-16T08:51:49;-7.80;1.00
26907;DHT22;14472;56.880;16.658;2024-01-16T08:54:14;-7.80;1.00
26907;DHT22;14472;56.880;16.658;2024-01-16T08:56:40;-7.90;1.00
26907;DHT22;14472;56.880;16.658;2024-01-16T08:59:06;-8.10;1.00
26907;DHT22;14472;56.880;16.658;2024-01-16T09:01:31;-7.90;1.00
26907;DHT22;14472;56.880;16.658;2024-01-16T09:03:57;-7.90;1.00
26907;DHT22;14472;56.880;16.658;2024-01-16T09:06:22;-8.00;1.00
26907;DHT22;14472;56.880;16.658;2024-01-16T09:08:48;-7.90;1.00
26907;DHT22;14472;56.880;16.658;2024-01-16T09:11:14;-8.10;1.00
26907;DHT22;14472;56.880;16.658;2024-01-16T09:13:39;-8.10;1.00
26907;DHT22;14472;56.880;16.658;2024-01-16T09:16:05;-7.90;1.00
26907;DHT22;14472;56.880;16.658;2024-01-16T09:18:31;-8.00;1.00
26907;DHT22;14472;56.880;16.658;2024-01-16T09:20:56;-7.80;1.00
26907;DHT22;14472;56.880;16.658;2024-01-16T09:23:22;-7.70;1.00
26907;DHT22;14472;56.880;16.658;2024-01-16T09:25:49;-7.50;1.00
26907;DHT22;14472;56.880;16.658;2024-01-16T09:28:15;-6.90;1.00
26907;DHT22;14472;56.880;16.658;2024-01-16T09:30:42;-7.30;1.00
26907;DHT22;14472;56.880;16.658;2024-01-16T09:33:08;-7.30;1.00
26907;DHT22;14472;56.880;16.658;2024-01-16T09:35:36;-7.50;1.00
26907;DHT22;14472;56.880;16.658;2024-01-16T09:38:03;-7.60;1.00
26907;DHT22;14472;56.880;16.658;2024-01-16T09:40:30;-7.50;1.00
26907;DHT22;14472;56.880;16.658;2024-01-16T09:42:56;-7.70;1.00
26907;DHT22;14472;56.880;16.658;2024-01-16T09:45:22;-7.60;1.00
26907;DHT22;14472;56.880;16.658;2024-01-16T09:47:51;-7.60;1.00
26907;DHT22;14472;56.880;16.658;2024-01-16T09:50:18;-7.60;1.00
26907;DHT22;14472;56.880;16.658;2024-01-16T09:52:47;-7.60;1.00
26907;DHT22;14472;56.880;16.658;2024-01-16T09:55:14;-7.00;1.00
26907;DHT22;14472;56.880;16.658;2024-01-16T09:57:41;-6.80;1.00
26907;DHT22;14472;56.880;16.658;2024-01-16T10:00:11;-6.30;1.00
26907;DHT22;14472;56.880;16.658;2024-01-16T10:02:41;-6.70;1.00
26907;DHT22;14472;56.880;16.658;2024-01-16T10:05:11;-7.10;1.00
26907;DHT22;14472;56.880;16.658;2024-01-16T10:07:41;-7.40;1.00
26907;DHT22;14472;56.880;16.658;2024-01-16T10:10:11;-7.50;1.00
26907;DHT22;14472;56.880;16.658;2024-01-16T10:12:38;-7.60;1.00
26907;DHT22;14472;56.880;16.658;2024-01-16T10:15:08;-7.50;1.00
26907;DHT22;14472;56.880;16.658;2024-01-16T10:17:43;-7.40;1.00
26907;DHT22;14472;56.880;16.658;2024-01-16T10:20:10;-7.40;1.00
26907;DHT22;14472;56.880;16.658;2024-01-16T10:22:40;-7.40;1.00
26907;DHT22;14472;56.880;16.658;2024-01-16T10:25:10;-7.40;1.00
26907;DHT22;14472;56.880;16.658;2024-01-16T10:27:40;-7.60;1.00
26907;DHT22;14472;56.880;16.658;2024-01-16T10:30:07;-7.60;1.00
26907;DHT22;14472;56.880;16.658;2024-01-16T10:32:40;-7.00;1.00
26907;DHT22;14472;56.880;16.658;2024-01-16T10:35:15;-6.40;1.00
26907;DHT22;14472;56.880;16.658;2024-01-16T10:37:47;-6.60;1.00
26907;DHT22;14472;56.880;16.658;2024-01-16T10:43:03;-7.20;1.00
26907;DHT22;14472;56.880;16.658;2024-01-16T10:45:29;-7.20;1.00
26907;DHT22;14472;56.880;16.658;2024-01-16T10:48:01;-7.10;1.00
26907;DHT22;14472;56.880;16.658;2024-01-16T10:50:28;-7.30;1.00
26907;DHT22;14472;56.880;16.658;2024-01-16T10:52:54;-7.20;1.00
26907;DHT22;14472;56.880;16.658;2024-01-16T10:55:22;-7.10;1.00
26907;DHT22;14472;56.880;16.658;2024-01-16T10:57:51;-7.20;1.00
26907;DHT22;14472;56.880;16.658;2024-01-16T11:00:21;-7.20;1.00
26907;DHT22;14472;56.880;16.658;2024-01-16T11:03:07;-7.20;1.00
26907;DHT22;14472;56.880;16.658;2024-01-16T11:05:35;-7.00;1.00
26907;DHT22;14472;56.880;16.658;2024-01-16T11:08:03;-6.50;1.00
26907;DHT22;14472;56.880;16.658;2024-01-16T11:10:32;-6.00;1.00
26907;DHT22;14472;56.880;16.658;2024-01-16T11:13:01;-6.40;1.00
26907;DHT22;14472;56.880;16.658;2024-01-16T11:15:28;-6.60;1.00
26907;DHT22;14472;56.880;16.658;2024-01-16T11:17:55;-6.80;1.00
26907;DHT22;14472;56.880;16.658;2024-01-16T11:20:22;-6.80;1.00
26907;DHT22;14472;56.880;16.658;2024-01-16T11:22:49;-6.70;1.00
26907;DHT22;14472;56.880;16.658;2024-01-16T11:25:17;-6.70;1.00
26907;DHT22;14472;56.880;16.658;2024-01-16T11:27:47;-6.80;1.00
26907;DHT22;14472;56.880;16.658;2024-01-16T11:30:30;-6.90;1.00
26907;DHT22;14472;56.880;16.658;2024-01-16T11:32:56;-6.90;1.00
26907;DHT22;14472;56.880;16.658;2024-01-16T11:35:33;-6.90;1.00
26907;DHT22;14472;56.880;16.658;2024-01-16T11:38:25;-6.90;1.00
26907;DHT22;14472;56.880;16.658;2024-01-16T11:40:55;-6.90;1.00
26907;DHT22;14472;56.880;16.658;2024-01-16T11:46:00;-6.90;1.00
26907;DHT22;14472;56.880;16.658;2024-01-16T11:48:26;-6.80;1.00
26907;DHT22;14472;56.880;16.658;2024-01-16T11:50:53;-6.20;1.00
26907;DHT22;14472;56.880;16.658;2024-01-16T11:53:36;-5.70;1.00
26907;DHT22;14472;56.880;16.658;2024-01-16T12:01:50;-6.60;1.00
26907;DHT22;14472;56.880;16.658;2024-01-16T12:04:18;-6.70;1.00
26907;DHT22;14472;56.880;16.658;2024-01-16T12:06:59;-6.60;1.00
26907;DHT22;14472;56.880;16.658;2024-01-16T12:09:27;-6.70;1.00
26907;DHT22;14472;56.880;16.658;2024-01-16T12:12:00;-6.70;1.00
26907;DHT22;14472;56.880;16.658;2024-01-16T12:14:27;-6.50;1.00
26907;DHT22;14472;56.880;16.658;2024-01-16T12:17:07;-6.60;1.00
26907;DHT22;14472;56.880;16.658;2024-01-16T12:19:33;-6.70;1.00
26907;DHT22;14472;56.880;16.658;2024-01-16T12:22:00;-6.50;1.00
26907;DHT22;14472;56.880;16.658;2024-01-16T12:24:26;-6.00;1.00
26907;DHT22;14472;56.880;16.658;2024-01-16T12:26:51;-5.20;1.00
26907;DHT22;14472;56.880;16.658;2024-01-16T12:29:18;-5.80;1.00
26907;DHT22;14472;56.880;16.658;2024-01-16T12:31:44;-6.10;1.00
26907;DHT22;14472;56.880;16.658;2024-01-16T12:34:10;-6.20;1.00
26907;DHT22;14472;56.880;16.658;2024-01-16T12:36:36;-6.30;1.00
26907;DHT22;14472;56.880;16.658;2024-01-16T12:39:03;-6.20;1.00
26907;DHT22;14472;56.880;16.658;2024-01-16T12:41:34;-6.20;1.00
26907;DHT22;14472;56.880;16.658;2024-01-16T12:44:02;-6.10;1.00
26907;DHT22;14472;56.880;16.658;2024-01-16T12:46:28;-5.90;1.00
26907;DHT22;14472;56.880;16.658;2024-01-16T12:49:03;-5.90;1.00
26907;DHT22;14472;56.880;16.658;2024-01-16T12:51:29;-6.00;1.00
26907;DHT22;14472;56.880;16.658;2024-01-16T12:54:09;-6.10;1.00
26907;DHT22;14472;56.880;16.658;2024-01-16T12:56:35;-6.10;1.00
26907;DHT22;14472;56.880;16.658;2024-01-16T12:59:11;-6.10;1.00
26907;DHT22;14472;56.880;16.658;2024-01-16T13:01:40;-5.70;1.00
26907;DHT22;14472;56.880;16.658;2024-01-16T13:04:10;-5.90;1.00
26907;DHT22;14472;56.880;16.658;2024-01-16T13:06:36;-5.20;1.00
26907;DHT22;14472;56.880;16.658;2024-01-16T13:09:10;-5.40;1.00
26907;DHT22;14472;56.880;16.658;2024-01-16T13:11:48;-5.70;1.00
26907;DHT22;14472;56.880;16.658;2024-01-16T13:14:15;-6.00;1.00
26907;DHT22;14472;56.880;16.658;2024-01-16T13:16:40;-5.90;1.00
26907;DHT22;14472;56.880;16.658;2024-01-16T13:19:06;-6.00;1.00
26907;DHT22;14472;56.880;16.658;2024-01-16T13:21:36;-6.00;1.00
26907;DHT22;14472;56.880;16.658;2024-01-16T13:24:03;-5.90;1.00
26907;DHT22;14472;56.880;16.658;2024-01-16T13:26:29;-6.00;1.00
26907;DHT22;14472;56.880;16.658;2024-01-16T13:28:55;-6.00;1.00
26907;DHT22;14472;56.880;16.658;2024-01-16T13:31:20;-5.90;1.00
26907;DHT22;14472;56.880;16.658;2024-01-16T13:33:46;-5.90;1.00
26907;DHT22;14472;56.880;16.658;2024-01-16T13:36:12;-5.80;1.00
26907;DHT22;14472;56.880;16.658;2024-01-16T13:38:38;-5.80;1.00
26907;DHT22;14472;56.880;16.658;2024-01-16T13:41:03;-5.70;1.00
26907;DHT22;14472;56.880;16.658;2024-01-16T13:43:29;-5.10;1.00
26907;DHT22;14472;56.880;16.658;2024-01-16T13:45:55;-5.30;1.00
26907;DHT22;14472;56.880;16.658;2024-01-16T13:48:20;-5.50;1.00
26907;DHT22;14472;56.880;16.658;2024-01-16T13:50:47;-5.90;1.00
26907;DHT22;14472;56.880;16.658;2024-01-16T13:53:13;-6.00;1.00
26907;DHT22;14472;56.880;16.658;2024-01-16T13:55:42;-6.10;1.00
26907;DHT22;14472;56.880;16.658;2024-01-16T13:58:08;-6.00;1.00
26907;DHT22;14472;56.880;16.658;2024-01-16T14:00:34;-6.40;1.00
26907;DHT22;14472;56.880;16.658;2024-01-16T14:03:00;-6.20;1.00
26907;DHT22;14472;56.880;16.658;2024-01-16T14:05:28;-6.20;1.00
26907;DHT22;14472;56.880;16.658;2024-01-16T14:07:54;-6.10;1.00
26907;DHT22;14472;56.880;16.658;2024-01-16T14:10:21;-6.20;1.00
26907;DHT22;14472;56.880;16.658;2024-01-16T14:12:48;-6.20;1.00
26907;DHT22;14472;56.880;16.658;2024-01-16T14:15:16;-6.20;1.00
26907;DHT22;14472;56.880;16.658;2024-01-16T14:17:48;-6.20;1.00
26907;DHT22;14472;56.880;16.658;2024-01-16T14:20:15;-6.40;1.00
26907;DHT22;14472;56.880;16.658;2024-01-16T14:22:41;-6.30;1.00
26907;DHT22;14472;56.880;16.658;2024-01-16T14:25:08;-6.40;1.00
26907;DHT22;14472;56.880;16.658;2024-01-16T14:30:05;-6.40;1.00
26907;DHT22;14472;56.880;16.658;2024-01-16T14:32:32;-6.10;1.00
26907;DHT22;14472;56.880;16.658;2024-01-16T14:34:58;-6.10;1.00
26907;DHT22;14472;56.880;16.658;2024-01-16T14:37:24;-6.40;1.00
26907;DHT22;14472;56.880;16.658;2024-01-16T14:39:50;-6.50;1.00
26907;DHT22;14472;56.880;16.658;2024-01-16T14:42:15;-6.60;1.00
26907;DHT22;14472;56.880;16.658;2024-01-16T14:44:42;-6.70;1.00
26907;DHT22;14472;56.880;16.658;2024-01-16T14:47:07;-6.70;1.00
26907;DHT22;14472;56.880;16.658;2024-01-16T14:49:34;-6.80;1.00
26907;DHT22;14472;56.880;16.658;2024-01-16T14:52:00;-7.00;1.00
26907;DHT22;14472;56.880;16.658;2024-01-16T14:54:26;-6.90;1.00
26907;DHT22;14472;56.880;16.658;2024-01-16T14:56:52;-7.10;1.00
26907;DHT22;14472;56.880;16.658;2024-01-16T14:59:17;-7.00;1.00
26907;DHT22;14472;56.880;16.658;2024-01-16T15:01:44;-7.20;1.00
26907;DHT22;14472;56.880;16.658;2024-01-16T15:04:10;-7.20;1.00
26907;DHT22;14472;56.880;16.658;2024-01-16T15:06:35;-7.00;1.00
26907;DHT22;14472;56.880;16.658;2024-01-16T15:09:01;-7.00;1.00
26907;DHT22;14472;56.880;16.658;2024-01-16T15:11:27;-7.10;1.00
26907;DHT22;14472;56.880;16.658;2024-01-16T15:13:53;-7.20;1.00
26907;DHT22;14472;56.880;16.658;2024-01-16T15:16:20;-7.30;1.00
26907;DHT22;14472;56.880;16.658;2024-01-16T15:18:45;-6.80;1.00
26907;DHT22;14472;56.880;16.658;2024-01-16T15:21:11;-6.90;1.00
26907;DHT22;14472;56.880;16.658;2024-01-16T15:23:38;-7.20;1.00
26907;DHT22;14472;56.880;16.658;2024-01-16T15:26:04;-7.20;1.00
26907;DHT22;14472;56.880;16.658;2024-01-16T15:28:31;-7.20;1.00
26907;DHT22;14472;56.880;16.658;2024-01-16T15:30:57;-7.40;1.00
26907;DHT22;14472;56.880;16.658;2024-01-16T15:33:23;-7.30;1.00
26907;DHT22;14472;56.880;16.658;2024-01-16T15:35:48;-7.50;1.00
26907;DHT22;14472;56.880;16.658;2024-01-16T15:38:14;-7.50;1.00
26907;DHT22;14472;56.880;16.658;2024-01-16T15:40:40;-7.80;1.00